sensor_id;sensor_type;location;lat;lon;timestamp;P1;durP1;ratioP1;P2;durP2;ratioP2
6113;SDS011;3087;48.392;10.836;2023-11-19T00:00:09;4.67;;;4.13;;
6113;SDS011;3087;48.392;10.836;2023-11-19T00:02:38;5.00;;;4.00;;
6113;SDS011;3087;48.392;10.836;2023-11-19T00:05:04;4.13;;;3.63;;
6113;SDS011;3087;48.392;10.836;2023-11-19T00:07:34;4.00;;;3.20;;
6113;SDS011;3087;48.392;10.836;2023-11-19T00:10:09;4.77;;;4.10;;
6113;SDS011;3087;48.392;10.836;2023-11-19T00:12:37;4.23;;;3.40;;
6113;SDS011;3087;48.392;10.836;2023-11-19T00:15:04;4.70;;;3.20;;
6113;SDS011;3087;48.392;10.836;2023-11-19T00:17:31;4.83;;;3.47;;
6113;SDS011;3087;48.392;10.836;2023-11-19T00:19:57;4.73;;;3.77;;
6113;SDS011;3087;48.392;10.836;2023-11-19T00:22:22;4.70;;;4.20;;
6113;SDS011;3087;48.392;10.836;2023-11-19T00:24:48;3.97;;;3.57;;
6113;SDS011;3087;48.392;10.836;2023-11-19T00:27:13;4.47;;;4.03;;
6113;SDS011;3087;48.392;10.836;2023-11-19T00:29:39;3.37;;;3.00;;
6113;SDS011;3087;48.392;10.836;2023-11-19T00:32:05;5.43;;;3.60;;
6113;SDS011;3087;48.392;10.836;2023-11-19T00:34:32;6.07;;;3.53;;
6113;SDS011;3087;48.392;10.836;2023-11-19T00:36:58;4.33;;;3.87;;
6113;SDS011;3087;48.392;10.836;2023-11-19T00:39:23;5.20;;;4.17;;
6113;SDS011;3087;48.392;10.836;2023-11-19T00:41:49;7.07;;;4.30;;
6113;SDS011;3087;48.392;10.836;2023-11-19T00:44:15;7.43;;;4.80;;
6113;SDS011;3087;48.392;10.836;2023-11-19T00:46:40;4.83;;;4.27;;
6113;SDS011;3087;48.392;10.836;2023-11-19T00:49:06;4.33;;;3.93;;
6113;SDS011;3087;48.392;10.836;2023-11-19T00:51:31;5.50;;;4.47;;
6113;SDS011;3087;48.392;10.836;2023-11-19T00:53:57;6.73;;;4.27;;
6113;SDS011;3087;48.392;10.836;2023-11-19T00:56:24;6.63;;;5.40;;
6113;SDS011;3087;48.392;10.836;2023-11-19T00:58:49;6.93;;;5.37;;
6113;SDS011;3087;48.392;10.836;2023-11-19T01:01:15;11.37;;;5.27;;
6113;SDS011;3087;48.392;10.836;2023-11-19T01:03:41;7.17;;;4.83;;
6113;SDS011;3087;48.392;10.836;2023-11-19T01:06:06;5.23;;;4.37;;
6113;SDS011;3087;48.392;10.836;2023-11-19T01:08:33;5.00;;;4.33;;
6113;SDS011;3087;48.392;10.836;2023-11-19T01:11:00;6.07;;;5.10;;
6113;SDS011;3087;48.392;10.836;2023-11-19T01:13:27;7.07;;;5.73;;
6113;SDS011;3087;48.392;10.836;2023-11-19T01:15:53;5.40;;;4.63;;
6113;SDS011;3087;48.392;10.836;2023-11-19T01:18:18;7.63;;;6.00;;
6113;SDS011;3087;48.392;10.836;2023-11-19T01:20:44;9.13;;;5.27;;
6113;SDS011;3087;48.392;10.836;2023-11-19T01:23:09;5.30;;;4.80;;
6113;SDS011;3087;48.392;10.836;2023-11-19T01:25:36;6.00;;;4.70;;
6113;SDS011;3087;48.392;10.836;2023-11-19T01:28:03;5.30;;;4.27;;
6113;SDS011;3087;48.392;10.836;2023-11-19T01:30:29;6.87;;;5.10;;
6113;SDS011;3087;48.392;10.836;2023-11-19T01:32:55;4.67;;;4.07;;
6113;SDS011;3087;48.392;10.836;2023-11-19T01:35:22;6.37;;;4.77;;
6113;SDS011;3087;48.392;10.836;2023-11-19T01:37:48;5.57;;;4.73;;
6113;SDS011;3087;48.392;10.836;2023-11-19T01:40:15;5.20;;;4.47;;
6113;SDS011;3087;48.392;10.836;2023-11-19T01:42:45;5.93;;;4.50;;
6113;SDS011;3087;48.392;10.836;2023-11-19T01:45:11;5.17;;;4.67;;
6113;SDS011;3087;48.392;10.836;2023-11-19T01:47:47;5.20;;;4.70;;
6113;SDS011;3087;48.392;10.836;2023-11-19T01:50:13;4.63;;;4.17;;
6113;SDS011;3087;48.392;10.836;2023-11-19T01:52:39;5.53;;;4.70;;
6113;SDS011;3087;48.392;10.836;2023-11-19T01:55:06;5.67;;;4.63;;
6113;SDS011;3087;48.392;10.836;2023-11-19T01:57:34;4.93;;;3.97;;
6113;SDS011;3087;48.392;10.836;2023-11-19T02:00:02;6.87;;;4.83;;
6113;SDS011;3087;48.392;10.836;2023-11-19T02:02:28;9.53;;;5.87;;
6113;SDS011;3087;48.392;10.836;2023-11-19T02:04:55;5.63;;;4.53;;
6113;SDS011;3087;48.392;10.836;2023-11-19T02:07:22;6.33;;;5.53;;
6113;SDS011;3087;48.392;10.836;2023-11-19T02:09:50;4.50;;;4.10;;
6113;SDS011;3087;48.392;10.836;2023-11-19T02:12:16;9.67;;;7.07;;
6113;SDS011;3087;48.392;10.836;2023-11-19T02:14:42;5.23;;;4.27;;
6113;SDS011;3087;48.392;10.836;2023-11-19T02:17:07;4.83;;;4.40;;
6113;SDS011;3087;48.392;10.836;2023-11-19T02:20:05;5.53;;;4.87;;
6113;SDS011;3087;48.392;10.836;2023-11-19T02:22:34;5.90;;;4.83;;
6113;SDS011;3087;48.392;10.836;2023-11-19T02:25:00;5.77;;;4.67;;
6113;SDS011;3087;48.392;10.836;2023-11-19T02:27:56;4.83;;;4.07;;
6113;SDS011;3087;48.392;10.836;2023-11-19T02:30:24;6.80;;;6.03;;
6113;SDS011;3087;48.392;10.836;2023-11-19T02:32:57;8.73;;;5.60;;
6113;SDS011;3087;48.392;10.836;2023-11-19T02:35:25;6.37;;;5.67;;
6113;SDS011;3087;48.392;10.836;2023-11-19T02:37:51;6.27;;;5.23;;
6113;SDS011;3087;48.392;10.836;2023-11-19T02:40:17;7.93;;;5.20;;
6113;SDS011;3087;48.392;10.836;2023-11-19T02:42:43;6.37;;;4.93;;
6113;SDS011;3087;48.392;10.836;2023-11-19T02:45:09;7.20;;;5.40;;
6113;SDS011;3087;48.392;10.836;2023-11-19T02:47:39;8.67;;;5.63;;
6113;SDS011;3087;48.392;10.836;2023-11-19T02:50:07;6.83;;;5.50;;
6113;SDS011;3087;48.392;10.836;2023-11-19T02:52:42;5.40;;;4.83;;
6113;SDS011;3087;48.392;10.836;2023-11-19T02:55:12;6.07;;;4.97;;
6113;SDS011;3087;48.392;10.836;2023-11-19T02:57:41;6.93;;;4.67;;
6113;SDS011;3087;48.392;10.836;2023-11-19T03:00:17;5.50;;;4.87;;
6113;SDS011;3087;48.392;10.836;2023-11-19T03:02:44;6.77;;;4.90;;
6113;SDS011;3087;48.392;10.836;2023-11-19T03:05:19;5.90;;;4.40;;
6113;SDS011;3087;48.392;10.836;2023-11-19T03:07:44;8.40;;;5.63;;
6113;SDS011;3087;48.392;10.836;2023-11-19T03:10:10;7.77;;;5.33;;
6113;SDS011;3087;48.392;10.836;2023-11-19T03:12:40;6.73;;;5.67;;
6113;SDS011;3087;48.392;10.836;2023-11-19T03:15:06;7.23;;;6.17;;
6113;SDS011;3087;48.392;10.836;2023-11-19T03:17:34;7.73;;;5.67;;
6113;SDS011;3087;48.392;10.836;2023-11-19T03:20:01;5.40;;;4.90;;
6113;SDS011;3087;48.392;10.836;2023-11-19T03:22:31;6.30;;;5.43;;
6113;SDS011;3087;48.392;10.836;2023-11-19T03:24:59;5.73;;;5.10;;
6113;SDS011;3087;48.392;10.836;2023-11-19T03:27:24;6.07;;;5.20;;
6113;SDS011;3087;48.392;10.836;2023-11-19T03:29:50;5.33;;;4.83;;
6113;SDS011;3087;48.392;10.836;2023-11-19T03:32:16;4.73;;;4.03;;
6113;SDS011;3087;48.392;10.836;2023-11-19T03:34:41;5.20;;;4.17;;
6113;SDS011;3087;48.392;10.836;2023-11-19T03:37:07;5.60;;;4.30;;
6113;SDS011;3087;48.392;10.836;2023-11-19T03:39:34;5.00;;;4.50;;
6113;SDS011;3087;48.392;10.836;2023-11-19T03:41:59;4.70;;;4.20;;
6113;SDS011;3087;48.392;10.836;2023-11-19T03:44:25;5.00;;;4.43;;
6113;SDS011;3087;48.392;10.836;2023-11-19T03:46:52;4.67;;;4.27;;
6113;SDS011;3087;48.392;10.836;2023-11-19T03:49:17;5.77;;;4.80;;
6113;SDS011;3087;48.392;10.836;2023-11-19T03:51:43;5.07;;;4.10;;
6113;SDS011;3087;48.392;10.836;2023-11-19T03:54:09;4.60;;;4.20;;
6113;SDS011;3087;48.392;10.836;2023-11-19T03:56:34;5.80;;;5.20;;
6113;SDS011;3087;48.392;10.836;2023-11-19T03:59:00;6.37;;;4.70;;
6113;SDS011;3087;48.392;10.836;2023-11-19T04:01:26;5.73;;;4.93;;
6113;SDS011;3087;48.392;10.836;2023-11-19T04:03:51;6.53;;;4.53;;
6113;SDS011;3087;48.392;10.836;2023-11-19T04:06:17;4.90;;;4.40;;
6113;SDS011;3087;48.392;10.836;2023-11-19T04:08:42;4.97;;;4.47;;
6113;SDS011;3087;48.392;10.836;2023-11-19T04:11:08;6.57;;;4.77;;
6113;SDS011;3087;48.392;10.836;2023-11-19T04:13:34;6.43;;;4.33;;
6113;SDS011;3087;48.392;10.836;2023-11-19T04:16:00;7.10;;;4.27;;
6113;SDS011;3087;48.392;10.836;2023-11-19T04:18:26;5.77;;;4.40;;
6113;SDS011;3087;48.392;10.836;2023-11-19T04:20:52;4.50;;;3.50;;
6113;SDS011;3087;48.392;10.836;2023-11-19T04:23:17;4.73;;;4.20;;
6113;SDS011;3087;48.392;10.836;2023-11-19T04:25:43;5.03;;;4.15;;
6113;SDS011;3087;48.392;10.836;2023-11-19T04:28:09;4.47;;;4.00;;
6113;SDS011;3087;48.392;10.836;2023-11-19T04:30:34;4.43;;;4.03;;
6113;SDS011;3087;48.392;10.836;2023-11-19T04:33:00;4.30;;;3.73;;
6113;SDS011;3087;48.392;10.836;2023-11-19T04:35:26;4.67;;;3.87;;
6113;SDS011;3087;48.392;10.836;2023-11-19T04:37:51;3.93;;;3.53;;
6113;SDS011;3087;48.392;10.836;2023-11-19T04:40:17;4.77;;;3.90;;
6113;SDS011;3087;48.392;10.836;2023-11-19T04:42:47;5.03;;;4.20;;
6113;SDS011;3087;48.392;10.836;2023-11-19T04:45:13;5.18;;;4.03;;
6113;SDS011;3087;48.392;10.836;2023-11-19T04:47:39;5.85;;;4.28;;
6113;SDS011;3087;48.392;10.836;2023-11-19T04:50:04;7.00;;;5.23;;
6113;SDS011;3087;48.392;10.836;2023-11-19T04:52:30;7.00;;;4.80;;
6113;SDS011;3087;48.392;10.836;2023-11-19T04:54:56;5.33;;;4.40;;
6113;SDS011;3087;48.392;10.836;2023-11-19T04:57:21;4.32;;;3.90;;
6113;SDS011;3087;48.392;10.836;2023-11-19T04:59:47;4.23;;;3.73;;
6113;SDS011;3087;48.392;10.836;2023-11-19T05:02:12;4.87;;;4.37;;
6113;SDS011;3087;48.392;10.836;2023-11-19T05:04:42;6.50;;;4.85;;
6113;SDS011;3087;48.392;10.836;2023-11-19T05:07:09;5.60;;;4.57;;
6113;SDS011;3087;48.392;10.836;2023-11-19T05:09:34;4.32;;;3.92;;
6113;SDS011;3087;48.392;10.836;2023-11-19T05:12:00;4.33;;;3.90;;
6113;SDS011;3087;48.392;10.836;2023-11-19T05:14:27;4.73;;;4.00;;
6113;SDS011;3087;48.392;10.836;2023-11-19T05:16:53;4.93;;;4.17;;
6113;SDS011;3087;48.392;10.836;2023-11-19T05:19:18;4.43;;;3.77;;
6113;SDS011;3087;48.392;10.836;2023-11-19T05:21:44;4.93;;;4.27;;
6113;SDS011;3087;48.392;10.836;2023-11-19T05:24:10;4.30;;;3.90;;
6113;SDS011;3087;48.392;10.836;2023-11-19T05:26:37;5.17;;;4.67;;
6113;SDS011;3087;48.392;10.836;2023-11-19T05:29:02;5.00;;;4.20;;
6113;SDS011;3087;48.392;10.836;2023-11-19T05:31:29;5.50;;;4.53;;
6113;SDS011;3087;48.392;10.836;2023-11-19T05:33:55;4.90;;;4.03;;
6113;SDS011;3087;48.392;10.836;2023-11-19T05:36:21;6.47;;;4.80;;
6113;SDS011;3087;48.392;10.836;2023-11-19T05:38:46;5.23;;;4.70;;
6113;SDS011;3087;48.392;10.836;2023-11-19T05:41:12;4.87;;;4.37;;
6113;SDS011;3087;48.392;10.836;2023-11-19T05:43:37;5.07;;;4.57;;
6113;SDS011;3087;48.392;10.836;2023-11-19T05:46:05;5.17;;;4.67;;
6113;SDS011;3087;48.392;10.836;2023-11-19T05:48:31;5.33;;;4.77;;
6113;SDS011;3087;48.392;10.836;2023-11-19T05:50:57;6.43;;;5.47;;
6113;SDS011;3087;48.392;10.836;2023-11-19T05:53:23;4.95;;;4.45;;
6113;SDS011;3087;48.392;10.836;2023-11-19T05:55:49;5.03;;;4.45;;
6113;SDS011;3087;48.392;10.836;2023-11-19T05:58:20;5.17;;;4.67;;
6113;SDS011;3087;48.392;10.836;2023-11-19T06:00:51;6.70;;;4.90;;
6113;SDS011;3087;48.392;10.836;2023-11-19T06:03:17;5.95;;;5.35;;
6113;SDS011;3087;48.392;10.836;2023-11-19T06:05:45;7.43;;;6.67;;
6113;SDS011;3087;48.392;10.836;2023-11-19T06:08:11;5.50;;;4.60;;
6113;SDS011;3087;48.392;10.836;2023-11-19T06:10:38;6.57;;;5.47;;
6113;SDS011;3087;48.392;10.836;2023-11-19T06:13:04;5.80;;;5.20;;
6113;SDS011;3087;48.392;10.836;2023-11-19T06:15:30;5.57;;;3.85;;
6113;SDS011;3087;48.392;10.836;2023-11-19T06:17:57;4.90;;;4.28;;
6113;SDS011;3087;48.392;10.836;2023-11-19T06:20:24;5.40;;;4.05;;
6113;SDS011;3087;48.392;10.836;2023-11-19T06:22:50;4.60;;;4.20;;
6113;SDS011;3087;48.392;10.836;2023-11-19T06:25:16;4.73;;;4.23;;
6113;SDS011;3087;48.392;10.836;2023-11-19T06:27:42;5.13;;;4.60;;
6113;SDS011;3087;48.392;10.836;2023-11-19T06:30:07;5.73;;;4.87;;
6113;SDS011;3087;48.392;10.836;2023-11-19T06:32:33;4.63;;;4.20;;
6113;SDS011;3087;48.392;10.836;2023-11-19T06:34:59;6.60;;;4.53;;
6113;SDS011;3087;48.392;10.836;2023-11-19T06:37:25;4.10;;;3.60;;
6113;SDS011;3087;48.392;10.836;2023-11-19T06:39:52;5.13;;;4.63;;
6113;SDS011;3087;48.392;10.836;2023-11-19T06:42:17;3.93;;;3.53;;
6113;SDS011;3087;48.392;10.836;2023-11-19T06:44:43;4.30;;;3.90;;
6113;SDS011;3087;48.392;10.836;2023-11-19T06:47:09;5.50;;;4.20;;
6113;SDS011;3087;48.392;10.836;2023-11-19T06:49:34;4.07;;;3.63;;
6113;SDS011;3087;48.392;10.836;2023-11-19T06:52:00;3.92;;;3.53;;
6113;SDS011;3087;48.392;10.836;2023-11-19T06:54:25;4.78;;;4.28;;
6113;SDS011;3087;48.392;10.836;2023-11-19T06:56:51;5.18;;;4.68;;
6113;SDS011;3087;48.392;10.836;2023-11-19T06:59:16;3.63;;;3.33;;
6113;SDS011;3087;48.392;10.836;2023-11-19T07:01:42;4.53;;;4.13;;
6113;SDS011;3087;48.392;10.836;2023-11-19T07:04:10;5.53;;;4.72;;
6113;SDS011;3087;48.392;10.836;2023-11-19T07:06:37;4.47;;;4.03;;
6113;SDS011;3087;48.392;10.836;2023-11-19T07:09:04;5.03;;;3.30;;
6113;SDS011;3087;48.392;10.836;2023-11-19T07:11:38;3.75;;;3.25;;
6113;SDS011;3087;48.392;10.836;2023-11-19T07:14:05;3.90;;;3.30;;
6113;SDS011;3087;48.392;10.836;2023-11-19T07:16:32;4.50;;;3.45;;
6113;SDS011;3087;48.392;10.836;2023-11-19T07:18:59;5.53;;;3.50;;
6113;SDS011;3087;48.392;10.836;2023-11-19T07:21:26;4.10;;;3.10;;
6113;SDS011;3087;48.392;10.836;2023-11-19T07:23:53;5.72;;;3.88;;
6113;SDS011;3087;48.392;10.836;2023-11-19T07:26:19;3.30;;;3.00;;
6113;SDS011;3087;48.392;10.836;2023-11-19T07:28:45;5.68;;;3.97;;
6113;SDS011;3087;48.392;10.836;2023-11-19T07:31:10;4.20;;;3.75;;
6113;SDS011;3087;48.392;10.836;2023-11-19T07:33:37;3.75;;;3.38;;
6113;SDS011;3087;48.392;10.836;2023-11-19T07:36:04;4.40;;;3.33;;
6113;SDS011;3087;48.392;10.836;2023-11-19T07:38:30;4.22;;;3.25;;
6113;SDS011;3087;48.392;10.836;2023-11-19T07:40:56;3.25;;;2.70;;
6113;SDS011;3087;48.392;10.836;2023-11-19T07:43:21;3.70;;;3.28;;
6113;SDS011;3087;48.392;10.836;2023-11-19T07:45:47;3.40;;;3.10;;
6113;SDS011;3087;48.392;10.836;2023-11-19T07:48:12;3.30;;;3.00;;
6113;SDS011;3087;48.392;10.836;2023-11-19T07:50:39;3.78;;;3.00;;
6113;SDS011;3087;48.392;10.836;2023-11-19T07:53:07;3.42;;;3.00;;
6113;SDS011;3087;48.392;10.836;2023-11-19T07:55:34;2.90;;;2.63;;
6113;SDS011;3087;48.392;10.836;2023-11-19T07:58:00;3.58;;;3.28;;
6113;SDS011;3087;48.392;10.836;2023-11-19T08:00:29;3.10;;;2.80;;
6113;SDS011;3087;48.392;10.836;2023-11-19T08:02:56;3.47;;;3.17;;
6113;SDS011;3087;48.392;10.836;2023-11-19T08:05:22;4.88;;;3.20;;
6113;SDS011;3087;48.392;10.836;2023-11-19T08:07:49;4.47;;;3.40;;
6113;SDS011;3087;48.392;10.836;2023-11-19T08:10:17;3.78;;;2.72;;
6113;SDS011;3087;48.392;10.836;2023-11-19T08:12:42;6.22;;;5.55;;
6113;SDS011;3087;48.392;10.836;2023-11-19T08:15:08;3.17;;;2.88;;
6113;SDS011;3087;48.392;10.836;2023-11-19T08:17:34;2.50;;;2.30;;
6113;SDS011;3087;48.392;10.836;2023-11-19T08:19:59;3.45;;;3.15;;
6113;SDS011;3087;48.392;10.836;2023-11-19T08:22:25;2.78;;;2.47;;
6113;SDS011;3087;48.392;10.836;2023-11-19T08:24:51;4.07;;;3.67;;
6113;SDS011;3087;48.392;10.836;2023-11-19T08:27:16;3.25;;;2.95;;
6113;SDS011;3087;48.392;10.836;2023-11-19T08:29:42;4.20;;;2.70;;
6113;SDS011;3087;48.392;10.836;2023-11-19T08:32:07;2.33;;;2.13;;
6113;SDS011;3087;48.392;10.836;2023-11-19T08:34:33;3.13;;;2.63;;
6113;SDS011;3087;48.392;10.836;2023-11-19T08:36:59;3.58;;;3.28;;
6113;SDS011;3087;48.392;10.836;2023-11-19T08:39:25;3.60;;;2.50;;
6113;SDS011;3087;48.392;10.836;2023-11-19T08:41:51;3.03;;;2.72;;
6113;SDS011;3087;48.392;10.836;2023-11-19T08:44:16;3.78;;;2.70;;
6113;SDS011;3087;48.392;10.836;2023-11-19T08:46:48;2.97;;;2.70;;
6113;SDS011;3087;48.392;10.836;2023-11-19T08:49:16;3.28;;;2.88;;
6113;SDS011;3087;48.392;10.836;2023-11-19T08:51:42;3.17;;;2.65;;
6113;SDS011;3087;48.392;10.836;2023-11-19T08:54:08;2.40;;;2.20;;
6113;SDS011;3087;48.392;10.836;2023-11-19T08:56:33;2.60;;;2.40;;
6113;SDS011;3087;48.392;10.836;2023-11-19T08:59:00;2.80;;;2.60;;
6113;SDS011;3087;48.392;10.836;2023-11-19T09:01:26;2.40;;;2.20;;
6113;SDS011;3087;48.392;10.836;2023-11-19T09:03:51;4.10;;;3.70;;
6113;SDS011;3087;48.392;10.836;2023-11-19T09:06:17;3.13;;;2.70;;
6113;SDS011;3087;48.392;10.836;2023-11-19T09:08:43;3.00;;;2.40;;
6113;SDS011;3087;48.392;10.836;2023-11-19T09:11:08;3.13;;;2.83;;
6113;SDS011;3087;48.392;10.836;2023-11-19T09:13:35;3.60;;;2.67;;
6113;SDS011;3087;48.392;10.836;2023-11-19T09:16:01;3.85;;;3.20;;
6113;SDS011;3087;48.392;10.836;2023-11-19T09:18:30;3.35;;;2.83;;
6113;SDS011;3087;48.392;10.836;2023-11-19T09:20:56;3.20;;;2.72;;
6113;SDS011;3087;48.392;10.836;2023-11-19T09:23:22;3.55;;;3.00;;
6113;SDS011;3087;48.392;10.836;2023-11-19T09:25:50;3.42;;;3.13;;
6113;SDS011;3087;48.392;10.836;2023-11-19T09:28:15;3.17;;;2.50;;
6113;SDS011;3087;48.392;10.836;2023-11-19T09:30:41;4.30;;;2.65;;
6113;SDS011;3087;48.392;10.836;2023-11-19T09:33:07;4.78;;;2.90;;
6113;SDS011;3087;48.392;10.836;2023-11-19T09:35:32;2.78;;;2.40;;
6113;SDS011;3087;48.392;10.836;2023-11-19T09:37:58;3.30;;;2.90;;
6113;SDS011;3087;48.392;10.836;2023-11-19T09:40:24;2.90;;;2.58;;
6113;SDS011;3087;48.392;10.836;2023-11-19T09:42:50;3.28;;;2.92;;
6113;SDS011;3087;48.392;10.836;2023-11-19T09:45:16;4.55;;;4.03;;
6113;SDS011;3087;48.392;10.836;2023-11-19T09:47:45;4.72;;;2.40;;
6113;SDS011;3087;48.392;10.836;2023-11-19T09:50:18;2.35;;;2.15;;
6113;SDS011;3087;48.392;10.836;2023-11-19T09:52:44;2.25;;;2.05;;
6113;SDS011;3087;48.392;10.836;2023-11-19T09:55:11;2.30;;;1.90;;
6113;SDS011;3087;48.392;10.836;2023-11-19T09:57:40;3.05;;;2.30;;
6113;SDS011;3087;48.392;10.836;2023-11-19T10:00:09;5.35;;;4.28;;
6113;SDS011;3087;48.392;10.836;2023-11-19T10:02:36;2.20;;;2.00;;
6113;SDS011;3087;48.392;10.836;2023-11-19T10:05:04;3.30;;;2.65;;
6113;SDS011;3087;48.392;10.836;2023-11-19T10:07:31;2.15;;;1.73;;
6113;SDS011;3087;48.392;10.836;2023-11-19T10:09:59;2.30;;;2.10;;
6113;SDS011;3087;48.392;10.836;2023-11-19T10:12:26;2.17;;;1.98;;
6113;SDS011;3087;48.392;10.836;2023-11-19T10:14:53;2.83;;;2.42;;
6113;SDS011;3087;48.392;10.836;2023-11-19T10:17:27;1.92;;;1.65;;
6113;SDS011;3087;48.392;10.836;2023-11-19T10:19:54;2.08;;;1.88;;
6113;SDS011;3087;48.392;10.836;2023-11-19T10:22:20;3.10;;;2.38;;
6113;SDS011;3087;48.392;10.836;2023-11-19T10:24:49;2.28;;;2.08;;
6113;SDS011;3087;48.392;10.836;2023-11-19T10:27:15;5.25;;;4.40;;
6113;SDS011;3087;48.392;10.836;2023-11-19T10:29:40;2.53;;;1.85;;
6113;SDS011;3087;48.392;10.836;2023-11-19T10:32:09;2.85;;;2.03;;
6113;SDS011;3087;48.392;10.836;2023-11-19T10:34:37;2.30;;;2.10;;
6113;SDS011;3087;48.392;10.836;2023-11-19T10:37:04;2.30;;;2.10;;
6113;SDS011;3087;48.392;10.836;2023-11-19T10:39:51;2.80;;;2.00;;
6113;SDS011;3087;48.392;10.836;2023-11-19T10:42:19;1.98;;;1.80;;
6113;SDS011;3087;48.392;10.836;2023-11-19T10:44:45;1.98;;;1.70;;
6113;SDS011;3087;48.392;10.836;2023-11-19T10:47:11;2.45;;;2.22;;
6113;SDS011;3087;48.392;10.836;2023-11-19T10:49:38;2.13;;;1.92;;
6113;SDS011;3087;48.392;10.836;2023-11-19T10:52:05;3.03;;;2.30;;
6113;SDS011;3087;48.392;10.836;2023-11-19T10:54:33;2.80;;;2.05;;
6113;SDS011;3087;48.392;10.836;2023-11-19T10:56:59;2.30;;;2.05;;
6113;SDS011;3087;48.392;10.836;2023-11-19T10:59:28;2.55;;;2.10;;
6113;SDS011;3087;48.392;10.836;2023-11-19T11:01:56;3.30;;;2.50;;
6113;SDS011;3087;48.392;10.836;2023-11-19T11:04:23;2.60;;;2.38;;
6113;SDS011;3087;48.392;10.836;2023-11-19T11:06:54;2.03;;;1.83;;
6113;SDS011;3087;48.392;10.836;2023-11-19T11:09:21;3.05;;;2.28;;
6113;SDS011;3087;48.392;10.836;2023-11-19T11:11:48;2.55;;;1.80;;
6113;SDS011;3087;48.392;10.836;2023-11-19T11:14:16;2.40;;;1.98;;
6113;SDS011;3087;48.392;10.836;2023-11-19T11:16:45;1.98;;;1.80;;
6113;SDS011;3087;48.392;10.836;2023-11-19T11:19:13;2.35;;;2.15;;
6113;SDS011;3087;48.392;10.836;2023-11-19T11:21:42;2.60;;;2.08;;
6113;SDS011;3087;48.392;10.836;2023-11-19T11:24:24;2.10;;;1.90;;
6113;SDS011;3087;48.392;10.836;2023-11-19T11:27:20;3.83;;;2.40;;
6113;SDS011;3087;48.392;10.836;2023-11-19T11:30:20;4.93;;;4.05;;
6113;SDS011;3087;48.392;10.836;2023-11-19T11:36:29;2.10;;;1.70;;
6113;SDS011;3087;48.392;10.836;2023-11-19T11:38:57;3.72;;;2.50;;
6113;SDS011;3087;48.392;10.836;2023-11-19T11:41:32;1.98;;;1.80;;
6113;SDS011;3087;48.392;10.836;2023-11-19T11:43:58;3.70;;;2.15;;
6113;SDS011;3087;48.392;10.836;2023-11-19T11:48:59;2.20;;;2.03;;
6113;SDS011;3087;48.392;10.836;2023-11-19T11:54:10;2.28;;;1.90;;
6113;SDS011;3087;48.392;10.836;2023-11-19T11:56:38;2.38;;;2.17;;
6113;SDS011;3087;48.392;10.836;2023-11-19T11:59:08;2.85;;;2.35;;
6113;SDS011;3087;48.392;10.836;2023-11-19T12:02:00;2.25;;;2.05;;
6113;SDS011;3087;48.392;10.836;2023-11-19T12:04:28;2.00;;;1.67;;
6113;SDS011;3087;48.392;10.836;2023-11-19T12:09:30;1.83;;;1.73;;
6113;SDS011;3087;48.392;10.836;2023-11-19T12:20:05;1.70;;;1.60;;
6113;SDS011;3087;48.392;10.836;2023-11-19T12:22:34;3.45;;;1.70;;
6113;SDS011;3087;48.392;10.836;2023-11-19T12:25:02;2.35;;;2.15;;
6113;SDS011;3087;48.392;10.836;2023-11-19T12:27:31;1.90;;;1.50;;
6113;SDS011;3087;48.392;10.836;2023-11-19T12:29:58;2.00;;;1.80;;
6113;SDS011;3087;48.392;10.836;2023-11-19T12:32:24;2.30;;;1.83;;
6113;SDS011;3087;48.392;10.836;2023-11-19T12:34:50;4.15;;;2.53;;
6113;SDS011;3087;48.392;10.836;2023-11-19T12:37:16;2.65;;;2.35;;
6113;SDS011;3087;48.392;10.836;2023-11-19T12:39:41;1.65;;;1.50;;
6113;SDS011;3087;48.392;10.836;2023-11-19T12:42:08;3.75;;;2.30;;
6113;SDS011;3087;48.392;10.836;2023-11-19T12:44:34;2.95;;;1.83;;
6113;SDS011;3087;48.392;10.836;2023-11-19T12:47:03;1.88;;;1.67;;
6113;SDS011;3087;48.392;10.836;2023-11-19T12:49:31;4.18;;;1.90;;
6113;SDS011;3087;48.392;10.836;2023-11-19T12:51:58;2.28;;;1.92;;
6113;SDS011;3087;48.392;10.836;2023-11-19T12:54:34;3.42;;;1.85;;
6113;SDS011;3087;48.392;10.836;2023-11-19T12:57:00;2.15;;;1.77;;
6113;SDS011;3087;48.392;10.836;2023-11-19T12:59:27;2.85;;;2.13;;
6113;SDS011;3087;48.392;10.836;2023-11-19T13:01:56;2.55;;;1.85;;
6113;SDS011;3087;48.392;10.836;2023-11-19T13:04:30;2.47;;;2.00;;
6113;SDS011;3087;48.392;10.836;2023-11-19T13:06:56;2.45;;;2.10;;
6113;SDS011;3087;48.392;10.836;2023-11-19T13:09:23;2.08;;;1.88;;
6113;SDS011;3087;48.392;10.836;2023-11-19T13:11:49;2.08;;;1.88;;
6113;SDS011;3087;48.392;10.836;2023-11-19T13:14:16;3.22;;;2.47;;
6113;SDS011;3087;48.392;10.836;2023-11-19T13:16:41;2.53;;;1.77;;
6113;SDS011;3087;48.392;10.836;2023-11-19T13:19:07;2.35;;;2.05;;
6113;SDS011;3087;48.392;10.836;2023-11-19T13:21:36;2.33;;;2.13;;
6113;SDS011;3087;48.392;10.836;2023-11-19T13:24:03;2.00;;;1.80;;
6113;SDS011;3087;48.392;10.836;2023-11-19T13:26:28;2.58;;;2.05;;
6113;SDS011;3087;48.392;10.836;2023-11-19T13:28:54;2.63;;;2.40;;
6113;SDS011;3087;48.392;10.836;2023-11-19T13:31:20;3.33;;;3.03;;
6113;SDS011;3087;48.392;10.836;2023-11-19T13:33:46;2.65;;;1.90;;
6113;SDS011;3087;48.392;10.836;2023-11-19T13:36:12;2.55;;;2.15;;
6113;SDS011;3087;48.392;10.836;2023-11-19T13:38:38;3.83;;;1.95;;
6113;SDS011;3087;48.392;10.836;2023-11-19T13:41:05;3.17;;;2.25;;
6113;SDS011;3087;48.392;10.836;2023-11-19T13:43:31;2.50;;;2.22;;
6113;SDS011;3087;48.392;10.836;2023-11-19T13:45:57;2.55;;;2.03;;
6113;SDS011;3087;48.392;10.836;2023-11-19T13:48:23;4.10;;;1.60;;
6113;SDS011;3087;48.392;10.836;2023-11-19T13:50:49;2.13;;;1.88;;
6113;SDS011;3087;48.392;10.836;2023-11-19T13:53:16;3.75;;;2.97;;
6113;SDS011;3087;48.392;10.836;2023-11-19T13:55:42;1.73;;;1.63;;
6113;SDS011;3087;48.392;10.836;2023-11-19T13:58:08;3.17;;;2.38;;
6113;SDS011;3087;48.392;10.836;2023-11-19T14:00:34;2.30;;;2.10;;
6113;SDS011;3087;48.392;10.836;2023-11-19T14:02:59;2.97;;;2.47;;
6113;SDS011;3087;48.392;10.836;2023-11-19T14:05:25;2.92;;;2.20;;
6113;SDS011;3087;48.392;10.836;2023-11-19T14:07:51;3.13;;;2.63;;
6113;SDS011;3087;48.392;10.836;2023-11-19T14:10:18;1.90;;;1.70;;
6113;SDS011;3087;48.392;10.836;2023-11-19T14:12:44;2.72;;;1.77;;
6113;SDS011;3087;48.392;10.836;2023-11-19T14:15:10;3.55;;;3.03;;
6113;SDS011;3087;48.392;10.836;2023-11-19T14:17:37;1.90;;;1.70;;
6113;SDS011;3087;48.392;10.836;2023-11-19T14:20:04;2.40;;;2.10;;
6113;SDS011;3087;48.392;10.836;2023-11-19T14:22:40;2.10;;;1.90;;
6113;SDS011;3087;48.392;10.836;2023-11-19T14:25:11;2.65;;;2.25;;
6113;SDS011;3087;48.392;10.836;2023-11-19T14:27:37;2.13;;;1.92;;
6113;SDS011;3087;48.392;10.836;2023-11-19T14:30:07;2.60;;;2.05;;
6113;SDS011;3087;48.392;10.836;2023-11-19T14:32:36;2.25;;;2.05;;
6113;SDS011;3087;48.392;10.836;2023-11-19T14:35:02;2.45;;;1.98;;
6113;SDS011;3087;48.392;10.836;2023-11-19T14:37:28;2.47;;;1.80;;
6113;SDS011;3087;48.392;10.836;2023-11-19T14:39:55;2.63;;;2.20;;
6113;SDS011;3087;48.392;10.836;2023-11-19T14:42:22;3.13;;;2.83;;
6113;SDS011;3087;48.392;10.836;2023-11-19T14:44:50;2.78;;;2.22;;
6113;SDS011;3087;48.392;10.836;2023-11-19T14:47:17;2.63;;;2.42;;
6113;SDS011;3087;48.392;10.836;2023-11-19T14:49:43;4.60;;;2.83;;
6113;SDS011;3087;48.392;10.836;2023-11-19T14:52:09;4.78;;;2.60;;
6113;SDS011;3087;48.392;10.836;2023-11-19T14:54:35;3.22;;;2.17;;
6113;SDS011;3087;48.392;10.836;2023-11-19T14:57:01;2.47;;;2.15;;
6113;SDS011;3087;48.392;10.836;2023-11-19T14:59:26;3.53;;;2.78;;
6113;SDS011;3087;48.392;10.836;2023-11-19T15:01:53;2.28;;;1.85;;
6113;SDS011;3087;48.392;10.836;2023-11-19T15:04:18;4.10;;;2.47;;
6113;SDS011;3087;48.392;10.836;2023-11-19T15:06:44;2.08;;;1.70;;
6113;SDS011;3087;48.392;10.836;2023-11-19T15:09:09;5.38;;;1.83;;
6113;SDS011;3087;48.392;10.836;2023-11-19T15:11:41;4.55;;;2.30;;
6113;SDS011;3087;48.392;10.836;2023-11-19T15:14:07;2.38;;;2.00;;
6113;SDS011;3087;48.392;10.836;2023-11-19T15:16:32;3.90;;;2.92;;
6113;SDS011;3087;48.392;10.836;2023-11-19T15:18:59;5.13;;;1.90;;